sensor_id;sensor_type;location;lat;lon;timestamp;pressure;altitude;pressure_sealevel;temperature;humidity
41830;BME280;38614;43.472;23.936;2023-07-13T00:02:02;100034.69;;;24.13;nan
41830;BME280;38614;43.472;23.936;2023-07-13T00:04:50;100032.44;;;24.08;nan
41830;BME280;38614;43.472;23.936;2023-07-13T00:07:39;100037.59;;;24.10;nan
41830;BME280;38614;43.472;23.936;2023-07-13T00:10:27;100044.16;;;24.07;nan
41830;BME280;38614;43.472;23.936;2023-07-13T00:13:15;100039.31;;;24.07;nan
41830;BME280;38614;43.472;23.936;2023-07-13T00:16:03;100044.06;;;23.98;nan
41830;BME280;38614;43.472;23.936;2023-07-13T00:18:51;100042.72;;;23.89;nan
41830;BME280;38614;43.472;23.936;2023-07-13T00:21:43;100021.63;;;23.81;nan
41830;BME280;38614;43.472;23.936;2023-07-13T00:24:31;100044.66;;;23.93;nan
41830;BME280;38614;43.472;23.936;2023-07-13T00:27:19;100034.59;;;23.92;nan
41830;BME280;38614;43.472;23.936;2023-07-13T00:30:07;100040.34;;;23.88;nan
41830;BME280;38614;43.472;23.936;2023-07-13T00:32:58;100027.63;;;23.83;nan
41830;BME280;38614;43.472;23.936;2023-07-13T00:36:06;100017.13;;;23.71;nan
41830;BME280;38614;43.472;23.936;2023-07-13T00:38:54;100013.72;;;23.64;nan
41830;BME280;38614;43.472;23.936;2023-07-13T00:44:34;100030.44;;;23.71;nan
41830;BME280;38614;43.472;23.936;2023-07-13T00:47:22;100005.13;;;23.54;nan
41830;BME280;38614;43.472;23.936;2023-07-13T00:50:12;100023.34;;;23.66;nan
41830;BME280;38614;43.472;23.936;2023-07-13T00:53:01;100030.09;;;23.69;nan
41830;BME280;38614;43.472;23.936;2023-07-13T00:55:50;100032.25;;;23.65;nan
41830;BME280;38614;43.472;23.936;2023-07-13T00:58:39;100048.13;;;23.58;nan
41830;BME280;38614;43.472;23.936;2023-07-13T01:04:15;100029.06;;;23.50;nan
41830;BME280;38614;43.472;23.936;2023-07-13T01:07:06;100029.50;;;23.48;nan
41830;BME280;38614;43.472;23.936;2023-07-13T01:09:54;100025.91;;;23.48;nan
41830;BME280;38614;43.472;23.936;2023-07-13T01:15:40;100013.81;;;23.35;nan
41830;BME280;38614;43.472;23.936;2023-07-13T01:18:31;100016.28;;;23.32;nan
41830;BME280;38614;43.472;23.936;2023-07-13T01:21:19;100019.94;;;23.46;nan
41830;BME280;38614;43.472;23.936;2023-07-13T01:24:08;100023.75;;;23.39;nan
41830;BME280;38614;43.472;23.936;2023-07-13T01:26:56;100027.03;;;23.38;nan
41830;BME280;38614;43.472;23.936;2023-07-13T01:29:47;100013.00;;;23.34;nan
41830;BME280;38614;43.472;23.936;2023-07-13T01:32:35;100015.03;;;23.21;nan
41830;BME280;38614;43.472;23.936;2023-07-13T01:35:24;100021.25;;;23.28;nan
41830;BME280;38614;43.472;23.936;2023-07-13T01:41:03;100013.91;;;23.18;nan
41830;BME280;38614;43.472;23.936;2023-07-13T01:43:51;100001.72;;;23.09;nan
41830;BME280;38614;43.472;23.936;2023-07-13T01:46:39;100004.97;;;23.07;nan
41830;BME280;38614;43.472;23.936;2023-07-13T01:49:27;99985.44;;;22.87;nan
41830;BME280;38614;43.472;23.936;2023-07-13T01:52:14;100011.06;;;23.06;nan
41830;BME280;38614;43.472;23.936;2023-07-13T01:55:02;99679.84;;;20.87;nan
41830;BME280;38614;43.472;23.936;2023-07-13T01:57:54;100023.25;;;23.02;nan
41830;BME280;38614;43.472;23.936;2023-07-13T02:00:41;100029.00;;;22.99;nan
41830;BME280;38614;43.472;23.936;2023-07-13T02:03:29;100034.03;;;22.91;nan
41830;BME280;38614;43.472;23.936;2023-07-13T02:06:18;100027.00;;;22.83;nan
41830;BME280;38614;43.472;23.936;2023-07-13T02:09:07;100031.31;;;22.88;nan
41830;BME280;38614;43.472;23.936;2023-07-13T02:11:55;100029.81;;;22.83;nan
41830;BME280;38614;43.472;23.936;2023-07-13T02:14:43;100025.16;;;22.76;nan
41830;BME280;38614;43.472;23.936;2023-07-13T02:17:31;100003.59;;;22.70;nan
41830;BME280;38614;43.472;23.936;2023-07-13T02:20:22;100014.34;;;22.75;nan
41830;BME280;38614;43.472;23.936;2023-07-13T02:23:11;100028.31;;;22.79;nan
41830;BME280;38614;43.472;23.936;2023-07-13T02:26:03;100018.28;;;22.77;nan
41830;BME280;38614;43.472;23.936;2023-07-13T02:28:50;100031.56;;;22.77;nan
41830;BME280;38614;43.472;23.936;2023-07-13T02:31:39;100013.66;;;22.71;nan
41830;BME280;38614;43.472;23.936;2023-07-13T02:34:27;100013.66;;;22.71;nan
41830;BME280;38614;43.472;23.936;2023-07-13T02:37:17;100046.63;;;22.70;nan
41830;BME280;38614;43.472;23.936;2023-07-13T02:40:05;100037.69;;;22.59;nan
41830;BME280;38614;43.472;23.936;2023-07-13T02:42:56;100033.75;;;22.57;nan
41830;BME280;38614;43.472;23.936;2023-07-13T02:45:45;100033.06;;;22.53;nan
41830;BME280;38614;43.472;23.936;2023-07-13T02:48:34;100036.69;;;22.53;nan
41830;BME280;38614;43.472;23.936;2023-07-13T02:51:22;100019.25;;;22.42;nan
41830;BME280;38614;43.472;23.936;2023-07-13T02:54:10;100033.06;;;22.53;nan
41830;BME280;38614;43.472;23.936;2023-07-13T02:59:46;100046.34;;;22.52;nan
41830;BME280;38614;43.472;23.936;2023-07-13T03:02:34;100043.38;;;22.43;nan
41830;BME280;38614;43.472;23.936;2023-07-13T03:05:26;100038.19;;;22.41;nan
41830;BME280;38614;43.472;23.936;2023-07-13T03:11:06;100059.66;;;22.35;nan
41830;BME280;38614;43.472;23.936;2023-07-13T03:13:57;99947.41;;;21.43;nan
41830;BME280;38614;43.472;23.936;2023-07-13T03:16:47;100064.06;;;22.20;nan
41830;BME280;38614;43.472;23.936;2023-07-13T03:19:35;100067.50;;;22.11;nan
41830;BME280;38614;43.472;23.936;2023-07-13T03:22:24;100076.91;;;22.21;nan
41830;BME280;38614;43.472;23.936;2023-07-13T03:25:12;100082.38;;;22.28;nan
41830;BME280;38614;43.472;23.936;2023-07-13T03:28:00;100057.28;;;22.01;nan
41830;BME280;38614;43.472;23.936;2023-07-13T03:30:52;100080.44;;;22.25;nan
41830;BME280;38614;43.472;23.936;2023-07-13T03:33:47;100050.53;;;22.15;nan
41830;BME280;38614;43.472;23.936;2023-07-13T03:36:36;100084.03;;;22.26;nan
41830;BME280;38614;43.472;23.936;2023-07-13T03:39:27;100075.94;;;22.28;nan
41830;BME280;38614;43.472;23.936;2023-07-13T03:42:18;100089.06;;;22.34;nan
41830;BME280;38614;43.472;23.936;2023-07-13T03:45:08;100088.06;;;22.41;nan
41830;BME280;38614;43.472;23.936;2023-07-13T03:47:59;100070.38;;;22.40;nan
41830;BME280;38614;43.472;23.936;2023-07-13T03:50:48;100083.50;;;22.47;nan
41830;BME280;38614;43.472;23.936;2023-07-13T03:53:44;100074.31;;;22.59;nan
41830;BME280;38614;43.472;23.936;2023-07-13T03:56:34;100079.50;;;22.61;nan
41830;BME280;38614;43.472;23.936;2023-07-13T03:59:23;100069.63;;;22.69;nan
41830;BME280;38614;43.472;23.936;2023-07-13T04:02:11;100073.94;;;22.73;nan
41830;BME280;38614;43.472;23.936;2023-07-13T04:04:59;100072.59;;;22.78;nan
41830;BME280;38614;43.472;23.936;2023-07-13T04:07:47;100080.09;;;22.85;nan
41830;BME280;38614;43.472;23.936;2023-07-13T04:10:35;100076.50;;;22.84;nan
41830;BME280;38614;43.472;23.936;2023-07-13T04:13:23;100090.16;;;22.98;nan
41830;BME280;38614;43.472;23.936;2023-07-13T04:16:12;100088.50;;;23.01;nan
41830;BME280;38614;43.472;23.936;2023-07-13T04:19:01;100085.50;;;23.21;nan
41830;BME280;38614;43.472;23.936;2023-07-13T04:21:52;100086.19;;;23.25;nan
41830;BME280;38614;43.472;23.936;2023-07-13T04:24:42;100092.41;;;23.32;nan
41830;BME280;38614;43.472;23.936;2023-07-13T04:27:31;100084.53;;;23.40;nan
41830;BME280;38614;43.472;23.936;2023-07-13T04:30:19;100081.50;;;23.47;nan
41830;BME280;38614;43.472;23.936;2023-07-13T04:33:07;100086.97;;;23.67;nan
41830;BME280;38614;43.472;23.936;2023-07-13T04:35:56;100096.91;;;23.72;nan
41830;BME280;38614;43.472;23.936;2023-07-13T04:38:47;100085.63;;;23.72;nan
41830;BME280;38614;43.472;23.936;2023-07-13T04:41:37;100083.94;;;23.87;nan
41830;BME280;38614;43.472;23.936;2023-07-13T04:44:30;100086.19;;;23.92;nan
41830;BME280;38614;43.472;23.936;2023-07-13T04:47:18;99790.84;;;22.14;nan
41830;BME280;38614;43.472;23.936;2023-07-13T04:50:07;100087.72;;;24.18;nan
41830;BME280;38614;43.472;23.936;2023-07-13T04:52:55;100082.31;;;24.37;nan
41830;BME280;38614;43.472;23.936;2023-07-13T04:55:43;100081.16;;;24.47;nan
41830;BME280;38614;43.472;23.936;2023-07-13T04:58:32;100072.69;;;24.47;nan
41830;BME280;38614;43.472;23.936;2023-07-13T05:01:21;100081.59;;;24.58;nan
41830;BME280;38614;43.472;23.936;2023-07-13T05:04:10;100087.53;;;24.73;nan
41830;BME280;38614;43.472;23.936;2023-07-13T05:06:59;100091.13;;;25.08;nan
41830;BME280;38614;43.472;23.936;2023-07-13T05:09:47;100091.41;;;25.23;nan
41830;BME280;38614;43.472;23.936;2023-07-13T05:12:35;100104.00;;;25.31;nan
41830;BME280;38614;43.472;23.936;2023-07-13T05:15:23;100096.44;;;25.28;nan
41830;BME280;38614;43.472;23.936;2023-07-13T05:18:17;100089.25;;;25.58;nan
41830;BME280;38614;43.472;23.936;2023-07-13T05:26:41;100104.59;;;26.10;nan
41830;BME280;38614;43.472;23.936;2023-07-13T05:29:29;100113.47;;;26.30;nan
41830;BME280;38614;43.472;23.936;2023-07-13T05:32:18;100115.41;;;26.52;nan
41830;BME280;38614;43.472;23.936;2023-07-13T05:35:06;100108.84;;;26.73;nan
41830;BME280;38614;43.472;23.936;2023-07-13T05:37:57;100108.06;;;26.82;nan
41830;BME280;38614;43.472;23.936;2023-07-13T05:40:49;100098.94;;;26.78;nan
41830;BME280;38614;43.472;23.936;2023-07-13T05:43:37;100104.31;;;27.12;nan
41830;BME280;38614;43.472;23.936;2023-07-13T05:46:25;100122.84;;;27.50;nan
41830;BME280;38614;43.472;23.936;2023-07-13T05:52:01;100128.34;;;27.72;nan
41830;BME280;38614;43.472;23.936;2023-07-13T05:54:49;100118.78;;;28.02;nan
41830;BME280;38614;43.472;23.936;2023-07-13T05:57:37;100115.69;;;28.15;nan
41830;BME280;38614;43.472;23.936;2023-07-13T06:00:25;100130.63;;;28.34;nan
41830;BME280;38614;43.472;23.936;2023-07-13T06:03:13;100139.09;;;28.43;nan
41830;BME280;38614;43.472;23.936;2023-07-13T06:06:01;100129.81;;;28.66;nan
41830;BME280;38614;43.472;23.936;2023-07-13T06:08:49;100138.66;;;28.83;nan
41830;BME280;38614;43.472;23.936;2023-07-13T06:11:37;100132.44;;;28.94;nan
41830;BME280;38614;43.472;23.936;2023-07-13T06:14:25;100129.78;;;29.14;nan
41830;BME280;38614;43.472;23.936;2023-07-13T06:17:12;100144.78;;;29.30;nan
41830;BME280;38614;43.472;23.936;2023-07-13T06:20:00;100136.06;;;29.48;nan
41830;BME280;38614;43.472;23.936;2023-07-13T06:22:48;100125.69;;;29.74;nan
41830;BME280;38614;43.472;23.936;2023-07-13T06:25:36;100133.69;;;30.05;nan
41830;BME280;38614;43.472;23.936;2023-07-13T06:28:24;100140.22;;;30.41;nan
41830;BME280;38614;43.472;23.936;2023-07-13T06:31:15;100138.63;;;30.55;nan
41830;BME280;38614;43.472;23.936;2023-07-13T06:34:03;100127.81;;;31.00;nan
41830;BME280;38614;43.472;23.936;2023-07-13T06:39:38;100133.00;;;31.47;nan
41830;BME280;38614;43.472;23.936;2023-07-13T06:42:26;100126.78;;;31.49;nan
41830;BME280;38614;43.472;23.936;2023-07-13T06:45:14;100108.34;;;32.08;nan
41830;BME280;38614;43.472;23.936;2023-07-13T06:48:02;100120.63;;;32.19;nan
41830;BME280;38614;43.472;23.936;2023-07-13T06:50:51;100108.13;;;32.17;nan
41830;BME280;38614;43.472;23.936;2023-07-13T06:53:39;100106.09;;;32.23;nan
41830;BME280;38614;43.472;23.936;2023-07-13T06:56:26;100112.63;;;32.72;nan
41830;BME280;38614;43.472;23.936;2023-07-13T06:59:14;100100.22;;;32.92;nan
41830;BME280;38614;43.472;23.936;2023-07-13T07:02:02;100097.38;;;32.92;nan
41830;BME280;38614;43.472;23.936;2023-07-13T07:04:50;100100.25;;;33.03;nan
41830;BME280;38614;43.472;23.936;2023-07-13T07:07:38;100110.22;;;33.30;nan
41830;BME280;38614;43.472;23.936;2023-07-13T07:10:26;100095.06;;;33.12;nan
41830;BME280;38614;43.472;23.936;2023-07-13T07:13:16;100055.53;;;33.16;nan
41830;BME280;38614;43.472;23.936;2023-07-13T07:16:03;100104.22;;;33.22;nan
41830;BME280;38614;43.472;23.936;2023-07-13T07:18:51;100097.00;;;33.60;nan
41830;BME280;38614;43.472;23.936;2023-07-13T19:35:16;99856.88;;;29.31;nan
41830;BME280;38614;43.472;23.936;2023-07-13T19:38:04;99868.25;;;29.31;nan
41830;BME280;38614;43.472;23.936;2023-07-13T19:40:52;99858.47;;;29.32;nan
41830;BME280;38614;43.472;23.936;2023-07-13T19:43:44;99870.31;;;29.31;nan
41830;BME280;38614;43.472;23.936;2023-07-13T19:46:35;99827.34;;;28.93;nan
41830;BME280;38614;43.472;23.936;2023-07-13T19:49:23;99875.78;;;29.14;nan
41830;BME280;38614;43.472;23.936;2023-07-13T19:52:15;99881.38;;;29.08;nan
41830;BME280;38614;43.472;23.936;2023-07-13T20:00:46;99886.66;;;28.86;nan
41830;BME280;38614;43.472;23.936;2023-07-13T20:03:34;99866.28;;;28.73;nan
41830;BME280;38614;43.472;23.936;2023-07-13T20:06:31;99868.25;;;28.66;nan
41830;BME280;38614;43.472;23.936;2023-07-13T20:09:27;99878.44;;;28.73;nan
41830;BME280;38614;43.472;23.936;2023-07-13T20:12:28;99871.47;;;28.59;nan
41830;BME280;38614;43.472;23.936;2023-07-13T20:15:18;99862.06;;;28.53;nan
41830;BME280;38614;43.472;23.936;2023-07-13T20:18:11;99863.91;;;28.56;nan
41830;BME280;38614;43.472;23.936;2023-07-13T20:21:00;99862.84;;;28.54;nan
41830;BME280;38614;43.472;23.936;2023-07-13T20:23:48;99868.72;;;28.50;nan
41830;BME280;38614;43.472;23.936;2023-07-13T20:29:24;99870.53;;;28.24;nan
41830;BME280;38614;43.472;23.936;2023-07-13T20:32:12;99868.69;;;28.21;nan
41830;BME280;38614;43.472;23.936;2023-07-13T20:37:49;99854.84;;;28.14;nan
41830;BME280;38614;43.472;23.936;2023-07-13T20:40:38;99867.06;;;28.05;nan
41830;BME280;38614;43.472;23.936;2023-07-13T20:43:26;99869.00;;;27.99;nan
41830;BME280;38614;43.472;23.936;2023-07-13T20:46:20;99859.78;;;27.89;nan
41830;BME280;38614;43.472;23.936;2023-07-13T20:49:10;99856.06;;;27.83;nan
41830;BME280;38614;43.472;23.936;2023-07-13T20:51:58;99870.13;;;27.77;nan
41830;BME280;38614;43.472;23.936;2023-07-13T20:54:46;99860.13;;;27.67;nan
41830;BME280;38614;43.472;23.936;2023-07-13T20:57:37;99865.13;;;27.63;nan
41830;BME280;38614;43.472;23.936;2023-07-13T21:00:31;99875.66;;;27.48;nan
41830;BME280;38614;43.472;23.936;2023-07-13T21:03:24;99867.44;;;27.50;nan
41830;BME280;38614;43.472;23.936;2023-07-13T21:06:18;99843.34;;;27.45;nan
41830;BME280;38614;43.472;23.936;2023-07-13T21:09:19;99856.59;;;27.48;nan
41830;BME280;38614;43.472;23.936;2023-07-13T21:12:10;99852.19;;;27.47;nan
41830;BME280;38614;43.472;23.936;2023-07-13T21:14:58;99847.75;;;27.22;nan
41830;BME280;38614;43.472;23.936;2023-07-13T21:17:47;99846.66;;;27.20;nan
41830;BME280;38614;43.472;23.936;2023-07-13T21:20:37;99836.41;;;27.22;nan
41830;BME280;38614;43.472;23.936;2023-07-13T21:23:29;99838.84;;;26.96;nan
41830;BME280;38614;43.472;23.936;2023-07-13T21:26:18;99833.88;;;26.82;nan
41830;BME280;38614;43.472;23.936;2023-07-13T21:29:06;99822.63;;;26.64;nan
41830;BME280;38614;43.472;23.936;2023-07-13T21:31:54;99831.25;;;26.69;nan
41830;BME280;38614;43.472;23.936;2023-07-13T21:34:43;99822.28;;;26.71;nan
41830;BME280;38614;43.472;23.936;2023-07-13T21:37:32;99823.66;;;26.76;nan
41830;BME280;38614;43.472;23.936;2023-07-13T21:40:20;99818.47;;;26.74;nan
41830;BME280;38614;43.472;23.936;2023-07-13T21:43:11;99815.69;;;26.65;nan
41830;BME280;38614;43.472;23.936;2023-07-13T21:45:59;99825.44;;;26.64;nan
41830;BME280;38614;43.472;23.936;2023-07-13T21:48:47;99807.88;;;26.41;nan
41830;BME280;38614;43.472;23.936;2023-07-13T21:51:35;99820.16;;;26.38;nan
41830;BME280;38614;43.472;23.936;2023-07-13T21:54:23;99837.31;;;26.35;nan
41830;BME280;38614;43.472;23.936;2023-07-13T21:57:14;99827.06;;;26.28;nan
41830;BME280;38614;43.472;23.936;2023-07-13T22:00:03;99818.63;;;26.01;nan
41830;BME280;38614;43.472;23.936;2023-07-13T22:03:00;99835.28;;;26.26;nan
41830;BME280;38614;43.472;23.936;2023-07-13T22:05:48;99842.66;;;26.14;nan
41830;BME280;38614;43.472;23.936;2023-07-13T22:08:37;99846.13;;;26.19;nan
41830;BME280;38614;43.472;23.936;2023-07-13T22:11:26;99845.84;;;26.07;nan
41830;BME280;38614;43.472;23.936;2023-07-13T22:14:15;99832.16;;;25.97;nan
41830;BME280;38614;43.472;23.936;2023-07-13T22:17:04;99840.47;;;26.00;nan
41830;BME280;38614;43.472;23.936;2023-07-13T22:19:53;99829.31;;;25.88;nan
41830;BME280;38614;43.472;23.936;2023-07-13T22:22:41;99808.09;;;25.74;nan
41830;BME280;38614;43.472;23.936;2023-07-13T22:25:29;99829.78;;;25.86;nan
41830;BME280;38614;43.472;23.936;2023-07-13T22:28:20;99807.88;;;25.68;nan
41830;BME280;38614;43.472;23.936;2023-07-13T22:31:10;99811.53;;;25.78;nan
41830;BME280;38614;43.472;23.936;2023-07-13T22:33:59;99812.78;;;25.86;nan
41830;BME280;38614;43.472;23.936;2023-07-13T22:36:58;99806.81;;;25.75;nan
41830;BME280;38614;43.472;23.936;2023-07-13T22:39:48;99780.84;;;25.67;nan
41830;BME280;38614;43.472;23.936;2023-07-13T22:42:36;99800.38;;;25.83;nan
41830;BME280;38614;43.472;23.936;2023-07-13T22:45:25;99795.81;;;25.77;nan
41830;BME280;38614;43.472;23.936;2023-07-13T22:48:21;99795.50;;;25.75;nan
41830;BME280;38614;43.472;23.936;2023-07-13T22:51:13;99788.44;;;25.70;nan
41830;BME280;38614;43.472;23.936;2023-07-13T22:54:08;99785.59;;;25.61;nan
41830;BME280;38614;43.472;23.936;2023-07-13T22:56:58;99771.91;;;25.60;nan
41830;BME280;38614;43.472;23.936;2023-07-13T22:59:46;99774.75;;;25.60;nan
41830;BME280;38614;43.472;23.936;2023-07-13T23:02:34;99766.56;;;25.52;nan
41830;BME280;38614;43.472;23.936;2023-07-13T23:05:25;99763.88;;;25.49;nan
41830;BME280;38614;43.472;23.936;2023-07-13T23:08:27;99762.59;;;25.50;nan
41830;BME280;38614;43.472;23.936;2023-07-13T23:11:28;99749.88;;;25.45;nan
41830;BME280;38614;43.472;23.936;2023-07-13T23:14:16;99746.75;;;25.34;nan
41830;BME280;38614;43.472;23.936;2023-07-13T23:17:04;99723.16;;;25.28;nan
41830;BME280;38614;43.472;23.936;2023-07-13T23:19:57;99715.78;;;25.30;nan
41830;BME280;38614;43.472;23.936;2023-07-13T23:22:45;99709.03;;;25.28;nan
41830;BME280;38614;43.472;23.936;2023-07-13T23:25:33;99707.94;;;25.25;nan
41830;BME280;38614;43.472;23.936;2023-07-13T23:28:21;99699.59;;;25.22;nan
41830;BME280;38614;43.472;23.936;2023-07-13T23:31:12;99689.22;;;25.19;nan
41830;BME280;38614;43.472;23.936;2023-07-13T23:34:04;99676.03;;;25.16;nan
41830;BME280;38614;43.472;23.936;2023-07-13T23:36:53;99669.91;;;25.08;nan
41830;BME280;38614;43.472;23.936;2023-07-13T23:39:41;99678.69;;;25.10;nan
41830;BME280;38614;43.472;23.936;2023-07-13T23:42:28;99669.56;;;24.97;nan
41830;BME280;38614;43.472;23.936;2023-07-13T23:45:21;99677.38;;;24.93;nan
41830;BME280;38614;43.472;23.936;2023-07-13T23:48:12;99683.69;;;24.97;nan
41830;BME280;38614;43.472;23.936;2023-07-13T23:51:00;99664.00;;;24.75;nan
41830;BME280;38614;43.472;23.936;2023-07-13T23:53:48;99679.59;;;24.89;nan
41830;BME280;38614;43.472;23.936;2023-07-13T23:56:36;99679.75;;;24.85;nan
41830;BME280;38614;43.472;23.936;2023-07-13T23:59:24;99651.13;;;24.74;nan
